createdAt,value
2023-02-11T00:01:29.400Z,33.20
2023-02-11T00:03:57.332Z,34.10
2023-02-11T00:06:25.225Z,30.30
2023-02-11T00:08:52.462Z,33.03
2023-02-11T00:11:35.032Z,29.25
2023-02-11T00:14:05.392Z,26.60
2023-02-11T00:16:32.700Z,28.95
2023-02-11T00:19:01.655Z,27.15
2023-02-11T00:21:29.032Z,29.10
2023-02-11T00:23:59.919Z,22.77
2023-02-11T00:26:29.788Z,29.50
2023-02-11T00:28:57.251Z,28.38
2023-02-11T00:31:25.197Z,26.83
2023-02-11T00:33:52.863Z,26.42
2023-02-11T00:36:26.676Z,25.02
2023-02-11T00:38:55.135Z,26.83
2023-02-11T00:41:22.963Z,26.67
2023-02-11T00:43:50.265Z,32.45
2023-02-11T00:46:17.212Z,30.58
2023-02-11T00:48:44.286Z,27.92
2023-02-11T00:51:11.832Z,33.58
2023-02-11T00:53:39.246Z,36.40
2023-02-11T00:56:06.740Z,30.60
2023-02-11T00:58:33.891Z,32.50
2023-02-11T01:01:04.337Z,30.55
2023-02-11T01:03:31.775Z,25.63
2023-02-11T01:05:58.555Z,32.65
2023-02-11T01:08:25.441Z,27.75
2023-02-11T01:11:03.180Z,24.67
2023-02-11T01:13:32.887Z,26.40
2023-02-11T01:16:00.039Z,26.55
2023-02-11T01:18:27.777Z,23.83
2023-02-11T01:20:55.270Z,22.60
2023-02-11T01:23:22.396Z,26.60
2023-02-11T01:25:49.961Z,25.95
2023-02-11T01:28:23.117Z,27.73
2023-02-11T01:30:51.334Z,27.77
2023-02-11T01:33:18.331Z,26.23
2023-02-11T01:35:46.010Z,24.35
2023-02-11T01:38:17.550Z,28.50
2023-02-11T01:40:52.533Z,24.13
2023-02-11T01:43:20.123Z,25.17
2023-02-11T01:45:50.115Z,25.70
2023-02-11T01:48:29.174Z,25.95
2023-02-11T01:51:03.813Z,26.17
2023-02-11T01:53:50.695Z,28.48
2023-02-11T01:56:38.208Z,26.85
2023-02-11T01:59:11.735Z,23.77
2023-02-11T02:01:40.595Z,23.33
2023-02-11T02:04:10.256Z,23.48
2023-02-11T02:06:58.276Z,24.38
2023-02-11T02:09:29.325Z,20.98
2023-02-11T02:11:56.122Z,19.25
2023-02-11T02:14:22.998Z,24.75
2023-02-11T02:16:50.554Z,23.10
2023-02-11T02:20:05.759Z,22.60
2023-02-11T02:22:38.506Z,26.90
2023-02-11T02:25:20.466Z,24.65
2023-02-11T02:28:02.341Z,22.48
2023-02-11T02:30:41.704Z,22.23
2023-02-11T02:33:24.220Z,30.13
2023-02-11T02:36:12.748Z,23.38
2023-02-11T02:38:50.819Z,23.45
2023-02-11T02:41:21.157Z,28.58
2023-02-11T02:43:51.868Z,24.02
2023-02-11T02:46:25.041Z,22.60
2023-02-11T02:48:53.794Z,27.17
2023-02-11T02:51:48.522Z,22.92
2023-02-11T02:54:33.987Z,22.73
2023-02-11T02:57:06.863Z,23.52
2023-02-11T03:00:01.060Z,28.00
2023-02-11T03:02:42.329Z,25.23
2023-02-11T03:05:21.388Z,24.55
2023-02-11T03:07:51.815Z,29.60
2023-02-11T03:10:35.633Z,28.65
2023-02-11T03:13:03.617Z,26.50
2023-02-11T03:15:35.030Z,24.27
2023-02-11T03:18:03.845Z,27.33
2023-02-11T03:20:35.995Z,31.45
2023-02-11T03:23:07.587Z,26.75
2023-02-11T03:25:40.794Z,26.17
2023-02-11T03:28:49.649Z,27.17
2023-02-11T03:31:31.048Z,25.02
2023-02-11T03:34:14.588Z,29.90
2023-02-11T03:37:00.477Z,28.10
2023-02-11T03:39:52.950Z,24.95
2023-02-11T03:42:20.288Z,24.25
2023-02-11T03:44:53.834Z,27.33
2023-02-11T03:47:25.998Z,25.58
2023-02-11T03:49:55.470Z,23.77
2023-02-11T03:52:24.907Z,24.83
2023-02-11T03:54:55.886Z,24.55
2023-02-11T03:57:22.851Z,22.83
2023-02-11T03:59:58.463Z,26.70
2023-02-11T04:02:29.812Z,23.48
2023-02-11T04:04:57.037Z,24.33
2023-02-11T04:07:23.872Z,21.92
2023-02-11T04:09:50.859Z,20.33
2023-02-11T04:12:17.788Z,23.75
2023-02-11T04:14:44.781Z,24.05
2023-02-11T04:17:12.882Z,25.00
2023-02-11T04:19:39.762Z,22.83
2023-02-11T04:22:07.240Z,19.60
2023-02-11T04:24:34.412Z,23.60
2023-02-11T04:27:01.340Z,26.75
2023-02-11T04:29:28.465Z,26.02
2023-02-11T04:31:56.050Z,22.02
2023-02-11T04:34:24.562Z,23.02
2023-02-11T04:36:51.613Z,23.30
2023-02-11T04:39:19.165Z,23.85
2023-02-11T04:41:46.032Z,22.10
2023-02-11T04:44:12.957Z,24.65
2023-02-11T04:46:39.744Z,21.50
2023-02-11T04:49:06.620Z,22.13
2023-02-11T04:51:33.653Z,24.08
2023-02-11T04:54:00.484Z,20.85
2023-02-11T04:56:27.319Z,18.88
2023-02-11T04:58:54.152Z,19.30
2023-02-11T05:01:21.075Z,16.10
2023-02-11T05:03:48.538Z,16.25
2023-02-11T05:06:15.514Z,16.38
2023-02-11T05:08:42.577Z,11.85
2023-02-11T05:11:16.243Z,10.05
2023-02-11T05:13:43.344Z,7.97
2023-02-11T05:16:10.516Z,13.82
2023-02-11T05:18:42.160Z,13.63
2023-02-11T05:21:10.903Z,13.18
2023-02-11T05:23:38.573Z,13.07
2023-02-11T05:26:05.401Z,11.05
2023-02-11T05:28:32.743Z,8.75
2023-02-11T05:30:59.679Z,8.68
2023-02-11T05:33:26.652Z,9.32
2023-02-11T05:35:59.701Z,10.82
2023-02-11T05:38:27.332Z,10.77
2023-02-11T05:40:54.578Z,12.93
2023-02-11T05:43:21.696Z,12.75
2023-02-11T05:45:48.874Z,12.85
2023-02-11T05:48:16.550Z,14.13
2023-02-11T05:50:43.873Z,16.35
2023-02-11T05:53:10.961Z,18.10
2023-02-11T05:55:38.428Z,17.08
2023-02-11T05:58:06.008Z,21.02
2023-02-11T06:00:32.911Z,20.85
2023-02-11T06:03:00.054Z,19.98
2023-02-11T06:05:27.066Z,22.55
2023-02-11T06:07:54.187Z,22.40
2023-02-11T06:10:21.270Z,23.73
2023-02-11T06:12:48.119Z,23.83
2023-02-11T06:15:14.945Z,20.05
2023-02-11T06:17:41.769Z,20.88
2023-02-11T06:20:10.726Z,25.05
2023-02-11T06:22:38.012Z,23.52
2023-02-11T06:25:05.376Z,23.80
2023-02-11T06:27:32.555Z,21.42
2023-02-11T06:29:59.410Z,21.83
2023-02-11T06:32:43.719Z,20.20
2023-02-11T06:35:12.643Z,18.75
2023-02-11T06:37:40.554Z,21.20
2023-02-11T06:40:08.028Z,19.05
2023-02-11T06:42:36.340Z,21.65
2023-02-11T06:45:06.245Z,19.65
2023-02-11T06:47:33.314Z,18.00
2023-02-11T06:50:00.379Z,21.25
2023-02-11T06:52:27.402Z,20.70
2023-02-11T06:54:54.278Z,16.88
2023-02-11T06:57:21.239Z,16.45
2023-02-11T06:59:48.107Z,13.88
2023-02-11T07:02:15.239Z,10.98
2023-02-11T07:04:42.431Z,9.40
2023-02-11T07:07:09.179Z,8.45
2023-02-11T07:09:35.988Z,8.10
2023-02-11T07:12:02.965Z,7.45
2023-02-11T07:14:29.871Z,6.47
2023-02-11T07:16:56.729Z,10.32
2023-02-11T07:19:23.585Z,9.52
2023-02-11T07:21:50.485Z,10.02
2023-02-11T07:24:17.776Z,9.35
2023-02-11T07:26:44.937Z,10.75
2023-02-11T07:29:11.982Z,9.57
2023-02-11T07:31:38.860Z,9.93
2023-02-11T07:34:05.819Z,11.90
2023-02-11T07:36:32.909Z,13.73
2023-02-11T07:39:00.376Z,21.60
2023-02-11T07:41:27.891Z,22.17
2023-02-11T07:43:55.560Z,21.83
2023-02-11T07:46:27.852Z,21.80
2023-02-11T07:48:55.182Z,21.27
2023-02-11T07:51:25.555Z,18.20
2023-02-11T07:53:52.805Z,16.23
2023-02-11T07:56:21.764Z,16.15
2023-02-11T07:58:49.172Z,24.70
2023-02-11T08:02:08.975Z,22.23
2023-02-11T08:04:35.995Z,24.13
2023-02-11T08:07:03.110Z,21.83
2023-02-11T08:09:30.864Z,21.65
2023-02-11T08:11:59.125Z,21.00
2023-02-11T08:14:27.256Z,22.17
2023-02-11T08:16:54.094Z,22.40
2023-02-11T08:19:21.114Z,24.38
2023-02-11T08:21:48.038Z,22.27
2023-02-11T08:24:15.582Z,24.00
2023-02-11T08:26:43.595Z,23.42
2023-02-11T08:29:14.069Z,21.77
2023-02-11T08:31:43.966Z,21.77
2023-02-11T08:34:14.283Z,21.35
2023-02-11T08:36:42.542Z,21.25
2023-02-11T08:39:21.413Z,26.67
2023-02-11T08:41:56.523Z,22.25
2023-02-11T08:44:26.108Z,27.13
2023-02-11T08:46:53.526Z,27.25
2023-02-11T08:49:20.456Z,25.90
2023-02-11T08:51:47.439Z,27.67
2023-02-11T08:54:15.101Z,25.15
2023-02-11T08:56:42.174Z,24.17
2023-02-11T08:59:11.357Z,28.58
2023-02-11T09:01:38.400Z,29.77
2023-02-11T09:04:05.593Z,27.75
2023-02-11T09:06:32.456Z,28.63
2023-02-11T09:08:59.399Z,26.25
2023-02-11T09:11:30.612Z,28.85
2023-02-11T09:13:58.205Z,26.08
2023-02-11T09:16:31.090Z,26.25
2023-02-11T09:18:59.939Z,22.60
2023-02-11T09:21:27.389Z,21.70
2023-02-11T09:23:54.814Z,25.38
2023-02-11T09:26:24.364Z,26.40
2023-02-11T09:28:51.999Z,24.90
2023-02-11T09:31:22.231Z,27.25
2023-02-11T09:33:51.341Z,23.67
2023-02-11T09:36:21.498Z,18.58
2023-02-11T09:38:49.177Z,23.45
2023-02-11T09:41:43.855Z,25.33
2023-02-11T09:44:30.982Z,22.63
2023-02-11T09:47:29.689Z,16.40
2023-02-11T09:50:04.735Z,19.40
2023-02-11T09:52:45.098Z,22.48
2023-02-11T09:55:27.152Z,18.17
2023-02-11T09:57:54.482Z,18.90
2023-02-11T10:00:40.740Z,26.25
2023-02-11T10:03:14.465Z,19.33
2023-02-11T10:06:11.822Z,25.73
2023-02-11T10:08:58.179Z,27.60
2023-02-11T10:11:41.641Z,22.58
2023-02-11T10:14:55.966Z,28.27
2023-02-11T10:17:22.726Z,23.85
2023-02-11T10:20:20.414Z,23.48
2023-02-11T10:23:02.845Z,18.02
2023-02-11T10:25:39.698Z,21.05
2023-02-11T10:28:36.125Z,21.42
2023-02-11T10:31:24.753Z,22.65
2023-02-11T10:34:01.220Z,27.83
2023-02-11T10:36:34.968Z,22.58
2023-02-11T10:39:22.348Z,25.00
2023-02-11T10:42:09.675Z,25.40
2023-02-11T10:44:46.629Z,21.75
2023-02-11T10:47:20.724Z,20.95
2023-02-11T10:49:49.061Z,21.05
2023-02-11T10:52:24.316Z,18.92
2023-02-11T10:55:16.559Z,18.98
2023-02-11T10:58:03.651Z,19.95
2023-02-11T11:00:36.890Z,22.55
2023-02-11T11:03:19.163Z,23.33
2023-02-11T11:05:52.423Z,23.05
2023-02-11T11:08:19.967Z,21.85
2023-02-11T11:11:09.056Z,17.50
2023-02-11T11:13:54.153Z,18.48
2023-02-11T11:16:32.604Z,18.60
2023-02-11T11:19:08.729Z,18.75
2023-02-11T11:21:47.583Z,19.65
2023-02-11T11:24:26.881Z,20.25
2023-02-11T11:26:57.755Z,19.40
2023-02-11T11:29:30.627Z,17.45
2023-02-11T11:32:05.719Z,16.10
2023-02-11T11:34:40.839Z,17.30
2023-02-11T11:37:34.686Z,17.48
2023-02-11T11:40:23.923Z,14.32
2023-02-11T11:43:15.059Z,17.13
2023-02-11T11:46:02.865Z,17.85
2023-02-11T11:48:40.460Z,16.83
2023-02-11T11:51:12.454Z,15.55
2023-02-11T11:53:46.292Z,21.05
2023-02-11T11:56:22.709Z,17.83
2023-02-11T11:58:50.390Z,18.63
2023-02-11T12:01:52.925Z,20.50
2023-02-11T12:04:35.537Z,17.58
2023-02-11T12:07:08.491Z,16.60
2023-02-11T12:09:52.632Z,18.17
2023-02-11T12:12:26.789Z,20.00
2023-02-11T12:15:23.868Z,21.58
2023-02-11T12:18:15.854Z,19.40
2023-02-11T12:21:09.916Z,21.15
2023-02-11T12:23:51.741Z,20.60
2023-02-11T12:26:21.708Z,19.23
2023-02-11T12:29:27.712Z,17.65
2023-02-11T12:32:09.724Z,19.95
2023-02-11T12:34:54.500Z,18.60
2023-02-11T12:37:48.898Z,22.13
2023-02-11T12:40:21.892Z,20.10
2023-02-11T12:43:16.626Z,18.42
2023-02-11T12:46:14.417Z,23.50
2023-02-11T12:48:44.191Z,17.17
2023-02-11T12:51:37.706Z,19.85
2023-02-11T12:54:11.057Z,14.13
2023-02-11T12:56:50.848Z,12.40
2023-02-11T12:59:29.058Z,13.63
2023-02-11T13:01:56.653Z,15.48
2023-02-11T13:04:29.414Z,14.90
2023-02-11T13:06:58.469Z,16.73
2023-02-11T13:09:27.307Z,13.68
2023-02-11T13:11:56.419Z,15.80
2023-02-11T13:14:30.724Z,15.18
2023-02-11T13:16:58.687Z,18.20
2023-02-11T13:19:41.219Z,16.08
2023-02-11T13:22:18.357Z,13.73
2023-02-11T13:24:45.972Z,14.38
2023-02-11T13:27:21.470Z,16.95
2023-02-11T13:29:52.242Z,15.93
2023-02-11T13:32:19.636Z,19.77
2023-02-11T13:34:47.103Z,14.02
2023-02-11T13:37:35.842Z,17.38
2023-02-11T13:40:08.332Z,17.88
2023-02-11T13:42:46.693Z,15.95
2023-02-11T13:45:29.414Z,17.45
2023-02-11T13:48:00.804Z,17.80
2023-02-11T13:50:28.928Z,21.52
2023-02-11T13:53:03.640Z,19.23
2023-02-11T13:55:31.518Z,19.40
2023-02-11T13:58:08.113Z,20.90
2023-02-11T14:00:35.379Z,19.15
2023-02-11T14:03:55.159Z,16.50
2023-02-11T14:06:45.442Z,18.48
2023-02-11T14:09:17.597Z,20.55
2023-02-11T14:11:49.493Z,21.20
2023-02-11T14:14:16.810Z,19.48
2023-02-11T14:17:13.646Z,19.35
2023-02-11T14:19:46.013Z,21.60
2023-02-11T14:22:19.169Z,18.38
2023-02-11T14:24:48.846Z,16.92
2023-02-11T14:27:21.316Z,19.13
2023-02-11T14:29:58.054Z,16.45
2023-02-11T14:32:43.688Z,17.17
2023-02-11T14:35:21.741Z,16.20
2023-02-11T14:37:55.139Z,18.63
2023-02-11T14:40:29.849Z,18.13
2023-02-11T14:42:58.587Z,14.02
2023-02-11T14:45:31.279Z,17.08
2023-02-11T14:48:08.513Z,14.32
2023-02-11T14:50:44.982Z,17.20
2023-02-11T14:53:24.108Z,12.90
2023-02-11T14:55:52.888Z,12.75
2023-02-11T14:58:24.782Z,14.38
2023-02-11T15:00:58.882Z,17.60
2023-02-11T15:03:37.170Z,13.32
2023-02-11T15:06:04.470Z,12.35
2023-02-11T15:08:32.649Z,15.30
2023-02-11T15:11:01.774Z,12.70
2023-02-11T15:13:31.334Z,15.05
2023-02-11T15:16:02.257Z,14.25
2023-02-11T15:18:33.600Z,11.40
2023-02-11T15:21:00.858Z,13.90
2023-02-11T15:23:28.779Z,13.90
2023-02-11T15:25:56.786Z,14.55
2023-02-11T15:28:25.949Z,14.02
2023-02-11T15:30:59.798Z,13.70
2023-02-11T15:33:30.098Z,13.02
2023-02-11T15:35:58.012Z,12.90
2023-02-11T15:38:25.442Z,12.13
2023-02-11T15:40:58.350Z,11.77
2023-02-11T15:43:25.987Z,12.40
2023-02-11T15:45:53.106Z,15.10
2023-02-11T15:48:23.709Z,11.65
2023-02-11T15:50:52.378Z,11.98
2023-02-11T15:53:34.607Z,12.65
2023-02-11T15:56:10.243Z,12.93
2023-02-11T15:58:41.695Z,13.25
2023-02-11T16:01:09.918Z,14.50
2023-02-11T16:03:37.973Z,14.50
2023-02-11T16:06:23.607Z,12.68
2023-02-11T16:08:58.100Z,10.63
2023-02-11T16:11:27.325Z,12.85
2023-02-11T16:13:54.939Z,14.93
2023-02-11T16:16:29.904Z,13.75
2023-02-11T16:19:05.292Z,12.18
2023-02-11T16:21:39.430Z,14.40
2023-02-11T16:24:07.675Z,13.63
2023-02-11T16:26:43.915Z,11.75
2023-02-11T16:29:16.416Z,13.40
2023-02-11T16:31:46.903Z,14.70
2023-02-11T16:34:20.848Z,14.93
2023-02-11T16:36:48.322Z,14.80
2023-02-11T16:39:16.920Z,13.32
2023-02-11T16:41:44.430Z,17.38
2023-02-11T16:44:11.877Z,14.75
2023-02-11T16:46:39.689Z,14.65
2023-02-11T16:49:16.876Z,16.95
2023-02-11T16:51:44.834Z,17.98
2023-02-11T16:54:15.251Z,17.88
2023-02-11T16:56:43.690Z,14.23
2023-02-11T16:59:11.094Z,13.55
2023-02-11T17:01:39.621Z,16.23
2023-02-11T17:04:07.354Z,10.70
2023-02-11T17:06:35.256Z,13.60
2023-02-11T17:09:02.569Z,12.20
2023-02-11T17:11:29.807Z,13.73
2023-02-11T17:13:56.694Z,13.60
2023-02-11T17:16:25.133Z,12.55
2023-02-11T17:18:52.253Z,10.55
2023-02-11T17:21:19.256Z,11.27
2023-02-11T17:23:46.199Z,9.90
2023-02-11T17:26:13.191Z,9.45
2023-02-11T17:28:40.399Z,9.75
2023-02-11T17:31:09.584Z,10.23
2023-02-11T17:33:37.898Z,10.35
2023-02-11T17:36:07.113Z,10.93
2023-02-11T17:38:34.676Z,12.95
2023-02-11T17:41:04.691Z,10.80
2023-02-11T17:43:32.164Z,12.20
2023-02-11T17:45:59.258Z,12.90
2023-02-11T17:48:26.261Z,15.93
2023-02-11T17:50:53.251Z,13.50
2023-02-11T17:53:20.067Z,14.20
2023-02-11T17:55:46.901Z,14.73
2023-02-11T17:58:13.678Z,13.60
2023-02-11T18:00:40.700Z,13.52
2023-02-11T18:03:07.636Z,18.00
2023-02-11T18:05:36.318Z,16.15
2023-02-11T18:08:05.481Z,17.23
2023-02-11T18:10:33.612Z,13.13
2023-02-11T18:13:03.142Z,14.90
2023-02-11T18:15:30.070Z,14.65
2023-02-11T18:17:56.922Z,15.48
2023-02-11T18:20:23.756Z,16.33
2023-02-11T18:22:50.662Z,13.13
2023-02-11T18:25:18.953Z,13.77
2023-02-11T18:27:46.696Z,13.68
2023-02-11T18:30:19.100Z,13.07
2023-02-11T18:32:46.358Z,12.32
2023-02-11T18:35:15.617Z,11.88
2023-02-11T18:37:43.333Z,10.05
2023-02-11T18:40:11.406Z,12.65
2023-02-11T18:42:38.559Z,13.63
2023-02-11T18:45:09.717Z,12.82
2023-02-11T18:47:38.097Z,13.23
2023-02-11T18:50:06.859Z,11.65
2023-02-11T18:52:34.770Z,11.70
2023-02-11T18:55:01.824Z,13.70
2023-02-11T18:57:28.730Z,15.38
2023-02-11T18:59:55.825Z,13.75
2023-02-11T19:02:24.895Z,13.13
2023-02-11T19:04:52.325Z,12.75
2023-02-11T19:07:19.226Z,15.68
2023-02-11T19:09:46.082Z,13.43
2023-02-11T19:12:12.885Z,14.00
2023-02-11T19:14:39.836Z,14.30
2023-02-11T19:17:08.250Z,17.15
2023-02-11T19:19:36.755Z,16.52
2023-02-11T19:22:10.655Z,17.17
2023-02-11T19:24:38.110Z,15.05
2023-02-11T19:27:05.627Z,16.73
2023-02-11T19:29:35.221Z,13.45
2023-02-11T19:32:03.386Z,13.95
2023-02-11T19:34:30.483Z,13.18
2023-02-11T19:36:59.785Z,14.45
2023-02-11T19:39:27.207Z,15.05
2023-02-11T19:41:54.130Z,13.18
2023-02-11T19:44:20.998Z,16.67
2023-02-11T19:46:49.063Z,16.85
2023-02-11T19:49:23.017Z,15.80
2023-02-11T19:51:51.096Z,14.93
2023-02-11T19:54:18.216Z,13.15
2023-02-11T19:56:45.524Z,14.90
2023-02-11T19:59:12.603Z,13.00
2023-02-11T20:01:39.943Z,11.82
2023-02-11T20:04:07.729Z,13.13
2023-02-11T20:06:35.453Z,13.82
2023-02-11T20:09:07.819Z,13.40
2023-02-11T20:11:35.612Z,9.82
2023-02-11T20:14:03.015Z,8.18
2023-02-11T20:16:47.032Z,5.50
2023-02-11T20:19:20.536Z,5.03
2023-02-11T20:21:48.895Z,4.75
2023-02-11T20:24:20.394Z,3.72
2023-02-11T20:26:48.892Z,4.65
2023-02-11T20:29:19.314Z,3.80
2023-02-11T20:31:46.834Z,2.22
2023-02-11T20:34:13.895Z,2.88
2023-02-11T20:36:41.637Z,2.42
2023-02-11T20:39:10.137Z,3.08
2023-02-11T20:41:40.200Z,2.58
2023-02-11T20:44:08.680Z,3.25
2023-02-11T20:46:38.539Z,2.90
2023-02-11T20:49:06.294Z,3.03
2023-02-11T20:51:34.370Z,2.45
2023-02-11T20:54:02.069Z,2.25
2023-02-11T20:56:34.573Z,2.50
2023-02-11T20:59:04.099Z,3.20
2023-02-11T21:01:36.394Z,2.67
2023-02-11T21:04:03.641Z,2.78
2023-02-11T21:06:35.839Z,3.35
2023-02-11T21:09:04.083Z,3.78
2023-02-11T21:11:31.721Z,3.00
2023-02-11T21:13:59.510Z,4.45
2023-02-11T21:16:27.504Z,4.63
2023-02-11T21:18:55.477Z,4.45
2023-02-11T21:21:23.419Z,5.60
2023-02-11T21:23:50.876Z,4.90
2023-02-11T21:26:18.190Z,3.92
2023-02-11T21:28:45.646Z,4.10
2023-02-11T21:31:22.241Z,4.22
2023-02-11T21:33:50.106Z,6.10
2023-02-11T21:36:17.924Z,5.88
2023-02-11T21:38:45.726Z,4.75
2023-02-11T21:41:13.056Z,4.82
2023-02-11T21:43:40.906Z,5.55
2023-02-11T21:46:09.626Z,4.72
2023-02-11T21:48:37.357Z,5.28
2023-02-11T21:51:06.268Z,3.67
2023-02-11T21:53:33.627Z,6.32
2023-02-11T21:56:08.275Z,6.28
2023-02-11T21:58:36.104Z,6.35
2023-02-11T22:01:10.297Z,7.93
2023-02-11T22:03:37.509Z,5.80
2023-02-11T22:06:09.105Z,5.18
2023-02-11T22:08:36.507Z,4.32
2023-02-11T22:11:05.110Z,6.53
2023-02-11T22:13:32.512Z,3.63
2023-02-11T22:16:01.413Z,2.85
2023-02-11T22:18:30.433Z,3.20
2023-02-11T22:21:01.292Z,4.10
2023-02-11T22:23:29.278Z,2.75
2023-02-11T22:25:57.190Z,3.88
2023-02-11T22:28:28.098Z,3.25
2023-02-11T22:30:56.195Z,3.17
2023-02-11T22:33:24.308Z,2.97
2023-02-11T22:35:58.945Z,4.90
2023-02-11T22:38:26.646Z,3.97
2023-02-11T22:40:54.008Z,3.30
2023-02-11T22:43:21.388Z,4.25
2023-02-11T22:45:49.006Z,2.95
2023-02-11T22:48:16.405Z,5.50
2023-02-11T22:50:43.771Z,2.83
2023-02-11T22:53:11.096Z,3.08
2023-02-11T22:55:39.284Z,2.78
2023-02-11T22:58:06.776Z,2.63
2023-02-11T23:00:37.446Z,3.10
2023-02-11T23:03:04.992Z,1.60
2023-02-11T23:05:32.564Z,2.15
2023-02-11T23:07:59.866Z,2.33
2023-02-11T23:10:27.059Z,2.90
2023-02-11T23:12:54.467Z,3.90
2023-02-11T23:15:21.709Z,4.13
2023-02-11T23:17:48.994Z,3.50
2023-02-11T23:20:16.186Z,3.35
2023-02-11T23:22:43.039Z,4.07
2023-02-11T23:25:10.114Z,3.22
2023-02-11T23:27:37.061Z,3.47
2023-02-11T23:30:04.685Z,3.33
2023-02-11T23:32:31.647Z,2.47
2023-02-11T23:34:58.671Z,2.20
2023-02-11T23:37:25.641Z,1.90
2023-02-11T23:39:52.755Z,2.70
2023-02-11T23:42:19.598Z,2.00
2023-02-11T23:44:46.813Z,1.83
2023-02-11T23:47:13.745Z,1.60
2023-02-11T23:49:40.915Z,2.55
2023-02-11T23:52:07.996Z,2.03
2023-02-11T23:54:34.812Z,2.17
2023-02-11T23:57:01.806Z,3.17
2023-02-11T23:59:28.661Z,4.75
